Burgtor — V2OR7 — position and weather

sailwx.info

Track history (hours):
 
Tides and Currents Weather Stations Pressure Air Temp Water Temp Dewpoint Dewpoint Depression Visibility Wind Speed Wind Dir Waves Ship Positions

Burgtor

Last reported at 2015-Jul-02 17:32 UTC. Time now 2015-Jul-02 18:16 UTC.
Position N 38°44' W 009°06'.

Length 87 m; draft 5.2 m.

Type: Cargo ship. MMSI: 304665000.

Date/timePositionNaut miles runAvg speedWind from/ knotsBaromVisibWave heightAir tempDewpointWater temp
2015-Jul-02 17:32N 38°44' W 009°06'0 0.0
2015-Jul-02 16:32N 38°44' W 009°06'0 0.0
2015-Jul-02 15:32N 38°44' W 009°06'0 0.0
2015-Jul-02 14:29N 38°44' W 009°06'0 0.0
2015-Jul-02 13:32N 38°44' W 009°06'0 0.0
2015-Jul-02 12:31N 38°44' W 009°06'0 0.0
2015-Jul-02 11:31N 38°44' W 009°06'0 0.0
2015-Jul-02 10:31N 38°44' W 009°06'0 0.0
2015-Jul-02 09:31N 38°44' W 009°06'0 0.0
2015-Jul-02 08:31N 38°44' W 009°06'0 0.0
2015-Jul-02 07:31N 38°44' W 009°06'0 0.0
2015-Jul-02 06:31N 38°44' W 009°06'0 0.0
2015-Jul-02 05:31N 38°44' W 009°06'0 0.0
2015-Jul-02 04:31N 38°44' W 009°06'0 0.0
2015-Jul-02 03:31N 38°44' W 009°06'0 0.0
2015-Jul-02 02:31N 38°44' W 009°06'0 0.0
2015-Jul-02 01:31N 38°44' W 009°06'0 0.0
2015-Jul-02 00:31N 38°44' W 009°06'0 0.0
2015-Jul-01 23:31N 38°44' W 009°06'0 0.0
2015-Jul-01 22:31N 38°44' W 009°06'0 0.0
2015-Jul-01 21:31N 38°44' W 009°06'0 0.0
2015-Jul-01 20:31N 38°44' W 009°06'0 0.0
2015-Jul-01 19:31N 38°44' W 009°06'0 0.0
2015-Jul-01 18:31N 38°44' W 009°06'0 0.0
2015-Jul-01 17:31N 38°44' W 009°06'0 0.0
2015-Jul-01 16:31N 38°44' W 009°06'0 0.0
2015-Jul-01 15:31N 38°44' W 009°06'0 0.0
2015-Jul-01 14:31N 38°44' W 009°06'0 0.0
2015-Jul-01 13:31N 38°44' W 009°06'0 0.0
2015-Jul-01 12:31N 38°44' W 009°06'0 0.0
2015-Jul-01 11:31N 38°44' W 009°06'0 0.0
2015-Jul-01 10:31N 38°44' W 009°06'0 0.0
2015-Jul-01 09:31N 38°44' W 009°06'0 0.0
2015-Jul-01 08:31N 38°44' W 009°06'0 0.0
2015-Jul-01 07:31N 38°44' W 009°06'0 0.0
2015-Jul-01 06:31N 38°44' W 009°06'0 0.0
2015-Jul-01 05:31N 38°44' W 009°06'0 0.0
2015-Jul-01 04:31N 38°44' W 009°06'0 0.0
2015-Jul-01 03:31N 38°44' W 009°06'0 0.0
2015-Jul-01 02:33N 38°44' W 009°06'1 0.7
2015-Jul-01 01:33N 38°44' W 009°06'10 9.7
2015-Jul-01 00:33N 38°40' W 009°18'9 9.0
2015-Jun-30 23:33N 38°38' W 009°29'10 9.8
2015-Jun-30 22:33N 38°39' W 009°41'10 9.6
2015-Jun-30 21:33N 38°49' W 009°43'10 9.9
2015-Jun-30 20:33N 38°59' W 009°44'1010.0
2015-Jun-30 19:33N 39°09' W 009°44'1010.3
2015-Jun-30 18:33N 39°19' W 009°44'36 8.5
2015-Jun-30 14:17N 39°55' W 009°38'9 1.8
2015-Jun-30 09:24N 39°47' W 009°40'3 3.1
2015-Jun-30 08:17N 39°43' W 009°40'6 8.3
2015-Jun-30 07:34N 39°37' W 009°41'9 8.7
2015-Jun-30 06:33N 39°29' W 009°43'9 8.5
2015-Jun-30 05:33N 39°20' W 009°43'9 8.6
2015-Jun-30 04:33N 39°11' W 009°43'9 8.6
2015-Jun-30 03:34N 39°03' W 009°43'9 8.7
2015-Jun-30 02:33N 38°54' W 009°43'8 8.4
2015-Jun-30 01:33N 38°46' W 009°42'7 7.5
2015-Jun-30 00:33N 38°39' W 009°38'9 8.6
2015-Jun-29 23:34N 38°37' W 009°27'8 7.9
2015-Jun-29 22:33N 38°40' W 009°18'8 7.6
2015-Jun-29 21:33N 38°42' W 009°09'4 3.5
2015-Jun-29 20:31N 38°40' W 009°04'0 0.0
2015-Jun-29 19:31N 38°40' W 009°04'0 0.0
2015-Jun-29 18:31N 38°40' W 009°04'0 0.0
2015-Jun-29 17:31N 38°40' W 009°04'0 0.0
2015-Jun-29 16:31N 38°40' W 009°04'0 0.0
2015-Jun-29 15:31N 38°40' W 009°04'0 0.0
2015-Jun-29 14:31N 38°40' W 009°04'0 0.0
2015-Jun-29 13:31N 38°40' W 009°04'0 0.0
2015-Jun-29 12:25N 38°40' W 009°04'0 0.0
2015-Jun-29 11:31N 38°40' W 009°04'0 0.0
2015-Jun-29 10:28N 38°40' W 009°04'0 0.0
2015-Jun-29 09:31N 38°40' W 009°04'0 0.0
2015-Jun-29 08:31N 38°40' W 009°04'0 0.0
2015-Jun-29 07:31N 38°40' W 009°04'0 0.0
2015-Jun-29 06:31N 38°40' W 009°04'0 0.0
2015-Jun-29 05:31N 38°40' W 009°04'0 0.0
2015-Jun-29 04:31N 38°40' W 009°04'0 0.0
2015-Jun-29 03:31N 38°40' W 009°04'0 0.0
2015-Jun-29 02:31N 38°40' W 009°04'0 0.0
2015-Jun-29 01:31N 38°40' W 009°04'0 0.0
2015-Jun-29 00:31N 38°40' W 009°04'0 0.0
2015-Jun-28 23:31N 38°40' W 009°04'0 0.0
2015-Jun-28 22:31N 38°40' W 009°04'0 0.0
2015-Jun-28 21:31N 38°40' W 009°04'0 0.0
2015-Jun-28 20:31N 38°40' W 009°04'3 2.9
2015-Jun-28 19:34N 38°41' W 009°08'8 8.0
2015-Jun-28 18:33N 38°40' W 009°18'7 6.9
2015-Jun-28 17:33N 38°37' W 009°26'8 8.2
2015-Jun-28 16:33N 38°38' W 009°36'7 7.0
2015-Jun-28 15:33N 38°43' W 009°43'10 9.5
2015-Jun-28 14:33N 38°52' W 009°44'9 9.2
2015-Jun-28 13:34N 39°02' W 009°45'9 9.2
2015-Jun-28 12:34N 39°11' W 009°45'9 8.6
2015-Jun-28 11:34N 39°19' W 009°45'9 9.1
2015-Jun-28 10:33N 39°29' W 009°45'9 9.1
2015-Jun-28 09:33N 39°38' W 009°45'9 8.6
2015-Jun-28 08:32N 39°46' W 009°45'18 8.9
2015-Jun-28 06:33N 40°04' W 009°45'9 9.0
2015-Jun-28 05:33N 40°13' W 009°45'  
2015-Jun-24 14:19N 52°06' W 005°51'6 7.4
2015-Jun-24 13:31N 52°12' W 005°49'8 7.3
2015-Jun-24 12:24N 52°20' W 005°46'113 9.2
2015-Jun-24 00:07N 54°12' W 005°22'5 9.3
2015-Jun-23 23:33N 54°17' W 005°21'9 9.2
2015-Jun-23 22:34N 54°26' W 005°20'9 9.1
2015-Jun-23 21:33N 54°35' W 005°24'8 8.3
2015-Jun-23 20:34N 54°42' W 005°29'9 9.0
2015-Jun-23 19:34N 54°42' W 005°44'4 8.6
2015-Jun-23 19:05N 54°40' W 005°51'  
Track history (hours):
 
Tides and Currents Weather Stations Pressure Air Temp Water Temp Dewpoint Dewpoint Depression Visibility Wind Speed Wind Dir Waves Ship Positions

Burgtor

Last reported at 2015-Jul-02 17:32 UTC. Time now 2015-Jul-02 18:16 UTC.
Position N 38°44' W 009°06'.

Length 87 m; draft 5.2 m.

Type: Cargo ship. MMSI: 304665000.

Date/timePositionNaut miles runAvg speedWind from/ knotsBaromVisibWave heightAir tempDewpointWater temp
2015-Jul-02 17:32N 38°44' W 009°06'0 0.0
2015-Jul-02 16:32N 38°44' W 009°06'0 0.0
2015-Jul-02 15:32N 38°44' W 009°06'0 0.0
2015-Jul-02 14:29N 38°44' W 009°06'0 0.0
2015-Jul-02 13:32N 38°44' W 009°06'0 0.0
2015-Jul-02 12:31N 38°44' W 009°06'0 0.0
2015-Jul-02 11:31N 38°44' W 009°06'0 0.0
2015-Jul-02 10:31N 38°44' W 009°06'0 0.0
2015-Jul-02 09:31N 38°44' W 009°06'0 0.0
2015-Jul-02 08:31N 38°44' W 009°06'0 0.0
2015-Jul-02 07:31N 38°44' W 009°06'0 0.0
2015-Jul-02 06:31N 38°44' W 009°06'0 0.0
2015-Jul-02 05:31N 38°44' W 009°06'0 0.0
2015-Jul-02 04:31N 38°44' W 009°06'0 0.0
2015-Jul-02 03:31N 38°44' W 009°06'0 0.0
2015-Jul-02 02:31N 38°44' W 009°06'0 0.0
2015-Jul-02 01:31N 38°44' W 009°06'0 0.0
2015-Jul-02 00:31N 38°44' W 009°06'0 0.0
2015-Jul-01 23:31N 38°44' W 009°06'0 0.0
2015-Jul-01 22:31N 38°44' W 009°06'0 0.0
2015-Jul-01 21:31N 38°44' W 009°06'0 0.0
2015-Jul-01 20:31N 38°44' W 009°06'0 0.0
2015-Jul-01 19:31N 38°44' W 009°06'0 0.0
2015-Jul-01 18:31N 38°44' W 009°06'0 0.0
2015-Jul-01 17:31N 38°44' W 009°06'0 0.0
2015-Jul-01 16:31N 38°44' W 009°06'0 0.0
2015-Jul-01 15:31N 38°44' W 009°06'0 0.0
2015-Jul-01 14:31N 38°44' W 009°06'0 0.0
2015-Jul-01 13:31N 38°44' W 009°06'0 0.0
2015-Jul-01 12:31N 38°44' W 009°06'0 0.0
2015-Jul-01 11:31N 38°44' W 009°06'0 0.0
2015-Jul-01 10:31N 38°44' W 009°06'0 0.0
2015-Jul-01 09:31N 38°44' W 009°06'0 0.0
2015-Jul-01 08:31N 38°44' W 009°06'0 0.0
2015-Jul-01 07:31N 38°44' W 009°06'0 0.0
2015-Jul-01 06:31N 38°44' W 009°06'0 0.0
2015-Jul-01 05:31N 38°44' W 009°06'0 0.0
2015-Jul-01 04:31N 38°44' W 009°06'0 0.0
2015-Jul-01 03:31N 38°44' W 009°06'0 0.0
2015-Jul-01 02:33N 38°44' W 009°06'1 0.7
2015-Jul-01 01:33N 38°44' W 009°06'10 9.7
2015-Jul-01 00:33N 38°40' W 009°18'9 9.0
2015-Jun-30 23:33N 38°38' W 009°29'10 9.8
2015-Jun-30 22:33N 38°39' W 009°41'10 9.6
2015-Jun-30 21:33N 38°49' W 009°43'10 9.9
2015-Jun-30 20:33N 38°59' W 009°44'1010.0
2015-Jun-30 19:33N 39°09' W 009°44'1010.3
2015-Jun-30 18:33N 39°19' W 009°44'36 8.5
2015-Jun-30 14:17N 39°55' W 009°38'9 1.8
2015-Jun-30 09:24N 39°47' W 009°40'3 3.1
2015-Jun-30 08:17N 39°43' W 009°40'6 8.3
2015-Jun-30 07:34N 39°37' W 009°41'9 8.7
2015-Jun-30 06:33N 39°29' W 009°43'9 8.5
2015-Jun-30 05:33N 39°20' W 009°43'9 8.6
2015-Jun-30 04:33N 39°11' W 009°43'9 8.6
2015-Jun-30 03:34N 39°03' W 009°43'9 8.7
2015-Jun-30 02:33N 38°54' W 009°43'8 8.4
2015-Jun-30 01:33N 38°46' W 009°42'7 7.5
2015-Jun-30 00:33N 38°39' W 009°38'9 8.6
2015-Jun-29 23:34N 38°37' W 009°27'8 7.9
2015-Jun-29 22:33N 38°40' W 009°18'8 7.6
2015-Jun-29 21:33N 38°42' W 009°09'4 3.5
2015-Jun-29 20:31N 38°40' W 009°04'0 0.0
2015-Jun-29 19:31N 38°40' W 009°04'0 0.0
2015-Jun-29 18:31N 38°40' W 009°04'0 0.0
2015-Jun-29 17:31N 38°40' W 009°04'0 0.0
2015-Jun-29 16:31N 38°40' W 009°04'0 0.0
2015-Jun-29 15:31N 38°40' W 009°04'0 0.0
2015-Jun-29 14:31N 38°40' W 009°04'0 0.0
2015-Jun-29 13:31N 38°40' W 009°04'0 0.0
2015-Jun-29 12:25N 38°40' W 009°04'0 0.0
2015-Jun-29 11:31N 38°40' W 009°04'0 0.0
2015-Jun-29 10:28N 38°40' W 009°04'0 0.0
2015-Jun-29 09:31N 38°40' W 009°04'0 0.0
2015-Jun-29 08:31N 38°40' W 009°04'0 0.0
2015-Jun-29 07:31N 38°40' W 009°04'0 0.0
2015-Jun-29 06:31N 38°40' W 009°04'0 0.0
2015-Jun-29 05:31N 38°40' W 009°04'0 0.0
2015-Jun-29 04:31N 38°40' W 009°04'0 0.0
2015-Jun-29 03:31N 38°40' W 009°04'0 0.0
2015-Jun-29 02:31N 38°40' W 009°04'0 0.0
2015-Jun-29 01:31N 38°40' W 009°04'0 0.0
2015-Jun-29 00:31N 38°40' W 009°04'0 0.0
2015-Jun-28 23:31N 38°40' W 009°04'0 0.0
2015-Jun-28 22:31N 38°40' W 009°04'0 0.0
2015-Jun-28 21:31N 38°40' W 009°04'0 0.0
2015-Jun-28 20:31N 38°40' W 009°04'3 2.9
2015-Jun-28 19:34N 38°41' W 009°08'8 8.0
2015-Jun-28 18:33N 38°40' W 009°18'7 6.9
2015-Jun-28 17:33N 38°37' W 009°26'8 8.2
2015-Jun-28 16:33N 38°38' W 009°36'7 7.0
2015-Jun-28 15:33N 38°43' W 009°43'10 9.5
2015-Jun-28 14:33N 38°52' W 009°44'9 9.2
2015-Jun-28 13:34N 39°02' W 009°45'9 9.2
2015-Jun-28 12:34N 39°11' W 009°45'9 8.6
2015-Jun-28 11:34N 39°19' W 009°45'9 9.1
2015-Jun-28 10:33N 39°29' W 009°45'9 9.1
2015-Jun-28 09:33N 39°38' W 009°45'9 8.6
2015-Jun-28 08:32N 39°46' W 009°45'18 8.9
2015-Jun-28 06:33N 40°04' W 009°45'9 9.0
2015-Jun-28 05:33N 40°13' W 009°45'  
2015-Jun-24 14:19N 52°06' W 005°51'6 7.4
2015-Jun-24 13:31N 52°12' W 005°49'8 7.3
2015-Jun-24 12:24N 52°20' W 005°46'113 9.2
2015-Jun-24 00:07N 54°12' W 005°22'5 9.3
2015-Jun-23 23:33N 54°17' W 005°21'9 9.2
2015-Jun-23 22:34N 54°26' W 005°20'9 9.1
2015-Jun-23 21:33N 54°35' W 005°24'8 8.3
2015-Jun-23 20:34N 54°42' W 005°29'9 9.0
2015-Jun-23 19:34N 54°42' W 005°44'4 8.6
2015-Jun-23 19:05N 54°40' W 005°51'  

Dump ship's entire track history